Amarant — CQSF — position and weather

sailwx.info

Track history (hours):
 
Tides and Currents Weather Stations Pressure Air Temp Water Temp Dewpoint Dewpoint Depression Visibility Wind Speed Wind Dir Waves Ship Positions

Amarant

Last reported at 2014-Oct-31 17:32 UTC. Time now 2014-Oct-31 17:53 UTC.
Position N 57°18' E 011°49'.

Length 120 m; draft 7.2 m.

Type: Tanker. MMSI: 255623000.

Date/timePositionNaut miles runAvg speedWind from/ knotsBaromVisibWave heightAir tempDewpointWater temp
2014-Oct-31 17:32N 57°18' E 011°49'1212.4
2014-Oct-31 16:33N 57°29' E 011°40'1010.2
2014-Oct-31 15:33N 57°39' E 011°43'6 0.4
2014-Oct-30 23:24N 57°41' E 011°52'0 0.0
2014-Oct-30 10:33N 57°41' E 011°53'5 5.4
2014-Oct-30 09:33N 57°39' E 011°44'1313.0
2014-Oct-30 08:33N 57°40' E 011°19'1414.3
2014-Oct-30 07:33N 57°45' E 010°54'1413.9
2014-Oct-30 06:33N 57°45' E 010°28'1514.5
2014-Oct-30 05:32N 57°41' E 010°01'19612.8
2014-Oct-29 14:11N 54°43' E 007°31'813.4
2014-Oct-29 13:33N 54°35' E 007°33'1313.3
2014-Oct-29 12:33N 54°22' E 007°35'1212.1
2014-Oct-29 11:33N 54°11' E 007°43'1312.7
2014-Oct-29 10:33N 54°03' E 008°00'1211.6
2014-Oct-29 09:33N 53°60' E 008°19'1414.5
2014-Oct-29 08:33N 53°54' E 008°42'1414.3
2014-Oct-29 07:33N 53°53' E 009°06'1313.2
2014-Oct-29 06:33N 53°45' E 009°24'1313.3
2014-Oct-29 05:33N 53°35' E 009°38'9 9.4
2014-Oct-29 04:33N 53°33' E 009°53'5 4.6
2014-Oct-29 03:34N 53°29' E 009°58'1 0.0
2014-Oct-28 04:34N 53°30' E 009°57'8 7.7
2014-Oct-28 03:34N 53°34' E 009°46'1111.2
2014-Oct-28 02:33N 53°40' E 009°31'1313.3
2014-Oct-28 01:33N 53°51' E 009°18'1212.1
2014-Oct-28 00:33N 53°51' E 008°58'1110.6
2014-Oct-27 23:33N 53°54' E 008°41'1211.9
2014-Oct-27 22:33N 53°59' E 008°23'1110.7
2014-Oct-27 21:33N 54°02' E 008°05'2 1.8
2014-Oct-27 20:32N 54°03' E 008°08'0 0.0
2014-Oct-27 19:29N 54°03' E 008°08'0 0.0
2014-Oct-27 18:29N 54°03' E 008°08'0 0.0
2014-Oct-27 17:32N 54°03' E 008°08'0 0.0
2014-Oct-27 16:29N 54°03' E 008°08'0 0.0
2014-Oct-27 15:32N 54°03' E 008°08'0 0.1
2014-Oct-27 14:32N 54°03' E 008°08'0 0.1
2014-Oct-27 13:32N 54°02' E 008°08'1111.1
2014-Oct-27 12:33N 54°04' E 007°49'1413.6
2014-Oct-27 11:33N 54°09' E 007°27'1615.4
2014-Oct-27 10:30N 54°09' E 006°60'3115.4
2014-Oct-27 08:29N 54°07' E 006°07'1415.2
2014-Oct-27 07:32N 54°05' E 005°42'1514.8
2014-Oct-27 06:34N 54°03' E 005°18'1514.5
2014-Oct-27 05:32N 54°01' E 004°53'15213.9
2014-Oct-26 18:33N 53°42' E 000°37'1313.2
2014-Oct-26 17:33N 53°35' E 000°18'10 9.6
2014-Oct-26 16:33N 53°35' E 000°02'1010.3
2014-Oct-26 15:33N 53°40' W 000°13'5 4.8
2014-Oct-26 14:33N 53°45' W 000°16'0 0.0
2014-Oct-26 05:33N 53°45' W 000°16'2 1.9
2014-Oct-26 04:33N 53°43' W 000°14'1413.7
2014-Oct-26 03:33N 53°35' E 000°04'9 9.0
2014-Oct-26 02:33N 53°33' E 000°19'6 5.8
2014-Oct-26 01:33N 53°31' E 000°28'8 8.2
2014-Oct-26 00:32N 53°27' E 000°41'2812.4
2014-Oct-25 22:15N 53°13' E 001°21'912.5
2014-Oct-25 21:33N 53°07' E 001°32'1211.8
2014-Oct-25 20:33N 52°60' E 001°48'1311.5
2014-Oct-25 19:27N 52°52' E 002°05'1713.3
2014-Oct-25 18:12N 52°37' E 002°16'1014.9
2014-Oct-25 17:32N 52°28' E 002°21'5413.5
2014-Oct-25 13:32N 51°42' E 003°09'1111.3
2014-Oct-25 12:33N 51°36' E 003°23'1111.2
2014-Oct-25 11:34N 51°27' E 003°33'9 8.9
2014-Oct-25 10:33N 51°22' E 003°45'1010.4
2014-Oct-25 09:34N 51°26' E 004°01'1111.2
2014-Oct-25 08:33N 51°21' E 004°17'1 0.7
2014-Oct-25 07:33N 51°21' E 004°18'6 5.9
2014-Oct-25 06:33N 51°15' E 004°22'0 0.2
2014-Oct-25 05:32N 51°15' E 004°22'0 0.0
2014-Oct-25 04:32N 51°15' E 004°22'0 0.0
2014-Oct-25 03:32N 51°15' E 004°22'0 0.0
2014-Oct-25 02:32N 51°15' E 004°22'0 0.0
2014-Oct-25 01:32N 51°15' E 004°22'0 0.0
2014-Oct-25 00:32N 51°15' E 004°22'0 0.1
2014-Oct-24 23:32N 51°15' E 004°22'0 0.0
2014-Oct-24 22:32N 51°15' E 004°22'0 0.0
2014-Oct-24 21:32N 51°15' E 004°22'0 0.0
2014-Oct-24 20:32N 51°15' E 004°22'0 0.0
2014-Oct-24 19:32N 51°15' E 004°22'0 0.0
2014-Oct-24 18:32N 51°15' E 004°22'0 0.0
2014-Oct-24 17:32N 51°15' E 004°22'0 0.0
2014-Oct-24 16:32N 51°15' E 004°22'0 0.0
2014-Oct-24 15:32N 51°15' E 004°22'0 0.0
2014-Oct-24 14:32N 51°15' E 004°22'0 0.0
2014-Oct-24 13:32N 51°15' E 004°22'0 0.0
2014-Oct-24 12:32N 51°15' E 004°22'0 0.0
2014-Oct-24 11:32N 51°15' E 004°22'0 0.0
2014-Oct-24 10:32N 51°15' E 004°22'0 0.0
2014-Oct-24 09:32N 51°15' E 004°22'0 0.0
2014-Oct-24 08:32N 51°15' E 004°22'0 0.0
2014-Oct-24 07:32N 51°15' E 004°22'0 0.0
2014-Oct-24 06:32N 51°15' E 004°22'0 0.3
2014-Oct-24 05:32N 51°15' E 004°22'0 0.0
2014-Oct-24 04:32N 51°15' E 004°22'0 0.0
2014-Oct-24 03:31N 51°15' E 004°22'0 0.0
2014-Oct-24 02:31N 51°15' E 004°22'0 0.0
2014-Oct-24 01:31N 51°15' E 004°22'0 0.0
2014-Oct-24 00:28N 51°15' E 004°22'0 0.0
2014-Oct-23 23:31N 51°15' E 004°22'0 0.0
2014-Oct-23 22:31N 51°15' E 004°22'0 0.0
2014-Oct-23 21:31N 51°15' E 004°22'0 0.0
2014-Oct-23 20:31N 51°15' E 004°22'0 0.0
2014-Oct-23 19:31N 51°15' E 004°22'0 0.0
2014-Oct-23 18:31N 51°15' E 004°22'0 0.0
2014-Oct-23 17:31N 51°15' E 004°22'0 0.0
2014-Oct-23 16:28N 51°15' E 004°22'0 0.0
2014-Oct-23 15:28N 51°15' E 004°22'0 0.0
2014-Oct-23 14:31N 51°15' E 004°22'0 0.0
2014-Oct-23 13:31N 51°15' E 004°22'0 0.0
2014-Oct-23 12:31N 51°15' E 004°22'0 0.0
2014-Oct-23 11:31N 51°15' E 004°22'0 0.0
2014-Oct-23 10:31N 51°15' E 004°22'0 0.0
2014-Oct-23 09:31N 51°15' E 004°22'0 0.0
2014-Oct-23 08:31N 51°15' E 004°22'0 0.0
2014-Oct-23 07:31N 51°15' E 004°22'0 0.0
2014-Oct-23 06:31N 51°15' E 004°22'0 0.0
2014-Oct-23 05:31N 51°15' E 004°22'0 0.0
2014-Oct-23 04:31N 51°15' E 004°22'0 0.0
2014-Oct-23 03:31N 51°15' E 004°22'0 0.0
2014-Oct-23 02:31N 51°15' E 004°22'0 0.0
2014-Oct-23 01:31N 51°15' E 004°22'0 0.0
2014-Oct-23 00:31N 51°15' E 004°22'0 0.0
2014-Oct-22 23:31N 51°15' E 004°22'0 0.0
2014-Oct-22 22:31N 51°15' E 004°22'0 0.0
2014-Oct-22 21:31N 51°15' E 004°22'0 0.0
2014-Oct-22 20:31N 51°15' E 004°22'0 0.0
2014-Oct-22 19:31N 51°15' E 004°22'0 0.0
2014-Oct-22 18:31N 51°15' E 004°22'0 0.4
2014-Oct-22 17:33N 51°15' E 004°22'6 6.2
2014-Oct-22 16:34N 51°21' E 004°17'1 1.0
2014-Oct-22 15:33N 51°21' E 004°16'4 4.1
2014-Oct-22 14:33N 51°23' E 004°10'5 5.1
2014-Oct-22 13:33N 51°23' E 004°02'5 4.9
2014-Oct-22 12:31N 51°22' E 003°54'8 8.0
2014-Oct-22 11:33N 51°24' E 003°43'7 7.4
2014-Oct-22 10:33N 51°25' E 003°31'7 6.8
2014-Oct-22 09:33N 51°24' E 003°20'8 7.7
2014-Oct-22 08:32N 51°24' E 003°07'7 7.0
2014-Oct-22 07:33N 51°30' E 003°04'1212.0
2014-Oct-22 06:33N 51°41' E 003°12'91 9.0
2014-Oct-21 20:29N 53°04' E 004°14'8 8.0
2014-Oct-21 19:33N 53°09' E 004°23'9 9.3
2014-Oct-21 18:33N 53°18' E 004°28'  
Track history (hours):
 
Tides and Currents Weather Stations Pressure Air Temp Water Temp Dewpoint Dewpoint Depression Visibility Wind Speed Wind Dir Waves Ship Positions

Amarant

Last reported at 2014-Oct-31 17:32 UTC. Time now 2014-Oct-31 17:53 UTC.
Position N 57°18' E 011°49'.

Length 120 m; draft 7.2 m.

Type: Tanker. MMSI: 255623000.

Date/timePositionNaut miles runAvg speedWind from/ knotsBaromVisibWave heightAir tempDewpointWater temp
2014-Oct-31 17:32N 57°18' E 011°49'1212.4
2014-Oct-31 16:33N 57°29' E 011°40'1010.2
2014-Oct-31 15:33N 57°39' E 011°43'6 0.4
2014-Oct-30 23:24N 57°41' E 011°52'0 0.0
2014-Oct-30 10:33N 57°41' E 011°53'5 5.4
2014-Oct-30 09:33N 57°39' E 011°44'1313.0
2014-Oct-30 08:33N 57°40' E 011°19'1414.3
2014-Oct-30 07:33N 57°45' E 010°54'1413.9
2014-Oct-30 06:33N 57°45' E 010°28'1514.5
2014-Oct-30 05:32N 57°41' E 010°01'19612.8
2014-Oct-29 14:11N 54°43' E 007°31'813.4
2014-Oct-29 13:33N 54°35' E 007°33'1313.3
2014-Oct-29 12:33N 54°22' E 007°35'1212.1
2014-Oct-29 11:33N 54°11' E 007°43'1312.7
2014-Oct-29 10:33N 54°03' E 008°00'1211.6
2014-Oct-29 09:33N 53°60' E 008°19'1414.5
2014-Oct-29 08:33N 53°54' E 008°42'1414.3
2014-Oct-29 07:33N 53°53' E 009°06'1313.2
2014-Oct-29 06:33N 53°45' E 009°24'1313.3
2014-Oct-29 05:33N 53°35' E 009°38'9 9.4
2014-Oct-29 04:33N 53°33' E 009°53'5 4.6
2014-Oct-29 03:34N 53°29' E 009°58'1 0.0
2014-Oct-28 04:34N 53°30' E 009°57'8 7.7
2014-Oct-28 03:34N 53°34' E 009°46'1111.2
2014-Oct-28 02:33N 53°40' E 009°31'1313.3
2014-Oct-28 01:33N 53°51' E 009°18'1212.1
2014-Oct-28 00:33N 53°51' E 008°58'1110.6
2014-Oct-27 23:33N 53°54' E 008°41'1211.9
2014-Oct-27 22:33N 53°59' E 008°23'1110.7
2014-Oct-27 21:33N 54°02' E 008°05'2 1.8
2014-Oct-27 20:32N 54°03' E 008°08'0 0.0
2014-Oct-27 19:29N 54°03' E 008°08'0 0.0
2014-Oct-27 18:29N 54°03' E 008°08'0 0.0
2014-Oct-27 17:32N 54°03' E 008°08'0 0.0
2014-Oct-27 16:29N 54°03' E 008°08'0 0.0
2014-Oct-27 15:32N 54°03' E 008°08'0 0.1
2014-Oct-27 14:32N 54°03' E 008°08'0 0.1
2014-Oct-27 13:32N 54°02' E 008°08'1111.1
2014-Oct-27 12:33N 54°04' E 007°49'1413.6
2014-Oct-27 11:33N 54°09' E 007°27'1615.4
2014-Oct-27 10:30N 54°09' E 006°60'3115.4
2014-Oct-27 08:29N 54°07' E 006°07'1415.2
2014-Oct-27 07:32N 54°05' E 005°42'1514.8
2014-Oct-27 06:34N 54°03' E 005°18'1514.5
2014-Oct-27 05:32N 54°01' E 004°53'15213.9
2014-Oct-26 18:33N 53°42' E 000°37'1313.2
2014-Oct-26 17:33N 53°35' E 000°18'10 9.6
2014-Oct-26 16:33N 53°35' E 000°02'1010.3
2014-Oct-26 15:33N 53°40' W 000°13'5 4.8
2014-Oct-26 14:33N 53°45' W 000°16'0 0.0
2014-Oct-26 05:33N 53°45' W 000°16'2 1.9
2014-Oct-26 04:33N 53°43' W 000°14'1413.7
2014-Oct-26 03:33N 53°35' E 000°04'9 9.0
2014-Oct-26 02:33N 53°33' E 000°19'6 5.8
2014-Oct-26 01:33N 53°31' E 000°28'8 8.2
2014-Oct-26 00:32N 53°27' E 000°41'2812.4
2014-Oct-25 22:15N 53°13' E 001°21'912.5
2014-Oct-25 21:33N 53°07' E 001°32'1211.8
2014-Oct-25 20:33N 52°60' E 001°48'1311.5
2014-Oct-25 19:27N 52°52' E 002°05'1713.3
2014-Oct-25 18:12N 52°37' E 002°16'1014.9
2014-Oct-25 17:32N 52°28' E 002°21'5413.5
2014-Oct-25 13:32N 51°42' E 003°09'1111.3
2014-Oct-25 12:33N 51°36' E 003°23'1111.2
2014-Oct-25 11:34N 51°27' E 003°33'9 8.9
2014-Oct-25 10:33N 51°22' E 003°45'1010.4
2014-Oct-25 09:34N 51°26' E 004°01'1111.2
2014-Oct-25 08:33N 51°21' E 004°17'1 0.7
2014-Oct-25 07:33N 51°21' E 004°18'6 5.9
2014-Oct-25 06:33N 51°15' E 004°22'0 0.2
2014-Oct-25 05:32N 51°15' E 004°22'0 0.0
2014-Oct-25 04:32N 51°15' E 004°22'0 0.0
2014-Oct-25 03:32N 51°15' E 004°22'0 0.0
2014-Oct-25 02:32N 51°15' E 004°22'0 0.0
2014-Oct-25 01:32N 51°15' E 004°22'0 0.0
2014-Oct-25 00:32N 51°15' E 004°22'0 0.1
2014-Oct-24 23:32N 51°15' E 004°22'0 0.0
2014-Oct-24 22:32N 51°15' E 004°22'0 0.0
2014-Oct-24 21:32N 51°15' E 004°22'0 0.0
2014-Oct-24 20:32N 51°15' E 004°22'0 0.0
2014-Oct-24 19:32N 51°15' E 004°22'0 0.0
2014-Oct-24 18:32N 51°15' E 004°22'0 0.0
2014-Oct-24 17:32N 51°15' E 004°22'0 0.0
2014-Oct-24 16:32N 51°15' E 004°22'0 0.0
2014-Oct-24 15:32N 51°15' E 004°22'0 0.0
2014-Oct-24 14:32N 51°15' E 004°22'0 0.0
2014-Oct-24 13:32N 51°15' E 004°22'0 0.0
2014-Oct-24 12:32N 51°15' E 004°22'0 0.0
2014-Oct-24 11:32N 51°15' E 004°22'0 0.0
2014-Oct-24 10:32N 51°15' E 004°22'0 0.0
2014-Oct-24 09:32N 51°15' E 004°22'0 0.0
2014-Oct-24 08:32N 51°15' E 004°22'0 0.0
2014-Oct-24 07:32N 51°15' E 004°22'0 0.0
2014-Oct-24 06:32N 51°15' E 004°22'0 0.3
2014-Oct-24 05:32N 51°15' E 004°22'0 0.0
2014-Oct-24 04:32N 51°15' E 004°22'0 0.0
2014-Oct-24 03:31N 51°15' E 004°22'0 0.0
2014-Oct-24 02:31N 51°15' E 004°22'0 0.0
2014-Oct-24 01:31N 51°15' E 004°22'0 0.0
2014-Oct-24 00:28N 51°15' E 004°22'0 0.0
2014-Oct-23 23:31N 51°15' E 004°22'0 0.0
2014-Oct-23 22:31N 51°15' E 004°22'0 0.0
2014-Oct-23 21:31N 51°15' E 004°22'0 0.0
2014-Oct-23 20:31N 51°15' E 004°22'0 0.0
2014-Oct-23 19:31N 51°15' E 004°22'0 0.0
2014-Oct-23 18:31N 51°15' E 004°22'0 0.0
2014-Oct-23 17:31N 51°15' E 004°22'0 0.0
2014-Oct-23 16:28N 51°15' E 004°22'0 0.0
2014-Oct-23 15:28N 51°15' E 004°22'0 0.0
2014-Oct-23 14:31N 51°15' E 004°22'0 0.0
2014-Oct-23 13:31N 51°15' E 004°22'0 0.0
2014-Oct-23 12:31N 51°15' E 004°22'0 0.0
2014-Oct-23 11:31N 51°15' E 004°22'0 0.0
2014-Oct-23 10:31N 51°15' E 004°22'0 0.0
2014-Oct-23 09:31N 51°15' E 004°22'0 0.0
2014-Oct-23 08:31N 51°15' E 004°22'0 0.0
2014-Oct-23 07:31N 51°15' E 004°22'0 0.0
2014-Oct-23 06:31N 51°15' E 004°22'0 0.0
2014-Oct-23 05:31N 51°15' E 004°22'0 0.0
2014-Oct-23 04:31N 51°15' E 004°22'0 0.0
2014-Oct-23 03:31N 51°15' E 004°22'0 0.0
2014-Oct-23 02:31N 51°15' E 004°22'0 0.0
2014-Oct-23 01:31N 51°15' E 004°22'0 0.0
2014-Oct-23 00:31N 51°15' E 004°22'0 0.0
2014-Oct-22 23:31N 51°15' E 004°22'0 0.0
2014-Oct-22 22:31N 51°15' E 004°22'0 0.0
2014-Oct-22 21:31N 51°15' E 004°22'0 0.0
2014-Oct-22 20:31N 51°15' E 004°22'0 0.0
2014-Oct-22 19:31N 51°15' E 004°22'0 0.0
2014-Oct-22 18:31N 51°15' E 004°22'0 0.4
2014-Oct-22 17:33N 51°15' E 004°22'6 6.2
2014-Oct-22 16:34N 51°21' E 004°17'1 1.0
2014-Oct-22 15:33N 51°21' E 004°16'4 4.1
2014-Oct-22 14:33N 51°23' E 004°10'5 5.1
2014-Oct-22 13:33N 51°23' E 004°02'5 4.9
2014-Oct-22 12:31N 51°22' E 003°54'8 8.0
2014-Oct-22 11:33N 51°24' E 003°43'7 7.4
2014-Oct-22 10:33N 51°25' E 003°31'7 6.8
2014-Oct-22 09:33N 51°24' E 003°20'8 7.7
2014-Oct-22 08:32N 51°24' E 003°07'7 7.0
2014-Oct-22 07:33N 51°30' E 003°04'1212.0
2014-Oct-22 06:33N 51°41' E 003°12'91 9.0
2014-Oct-21 20:29N 53°04' E 004°14'8 8.0
2014-Oct-21 19:33N 53°09' E 004°23'9 9.3
2014-Oct-21 18:33N 53°18' E 004°28'  

Dump ship's entire track history